Stations météo

réclame
Mon MeteoGroup
Ploudalmezeau, France (7101): Température de l'air & dewpoint: 19.08.2019 02:00:00 - 25.08.2019 02:00:00 (CEST)Ploudalmezeau, France (7101): Vitesse du vent: 19.08.2019 02:00:00 - 25.08.2019 02:00:00 (CEST)Ploudalmezeau, France (7101): Direction du vent: 19.08.2019 02:00:00 - 25.08.2019 02:00:00 (CEST)Ploudalmezeau, France (7101): reduced air pressure: 19.08.2019 02:00:00 - 25.08.2019 02:00:00 (CEST)Ploudalmezeau, France (7101): Quantités de précipitations: 19.08.2019 02:00:00 - 25.08.2019 02:00:00 (CEST)
Date & Time tt [°C] td [°C] ff [km/h] ff [knt] dd ppp [hPa] rr [mm]
25.08.2019 02:00:00 15,3 14,8 7 4 WSW 1017,1 0,0
25.08.2019 01:00:00 16,1 15,6 9 5 WSW 1017,1 0,0
25.08.2019 00:00:00 16,3 15,3 6 4 SW 1016,8 0,0
24.08.2019 23:00:00 16,3 15,0 6 3 SW 1016,5 0,0
24.08.2019 22:00:00 16,8 15,1 6 4 SW 1016,5 0,0
24.08.2019 21:00:00 17,2 15,4 10 5 WSW 1016,2 0,0
24.08.2019 20:00:00 18,3 16,3 13 7 WSW 1015,9 0,0
24.08.2019 19:00:00 20,9 17,1 14 8 SW 1015,7 0,0
24.08.2019 18:00:00 21,8 17,6 14 8 WSW 1015,7 0,0
24.08.2019 17:00:00 22,9 18,7 13 7 WSW 1015,6 0,0
24.08.2019 16:00:00 21,7 18,3 18 10 W 1015,8 0,0
24.08.2019 15:00:00 25,3 14,1 14 7 SW 1015,6 0,0
24.08.2019 14:00:00 26,1 14,2 15 8 SSW 1015,5 0,0
24.08.2019 13:00:00 26,5 14,3 13 7 SSW 1015,5 0,0
24.08.2019 12:00:00 25,0 14,8 13 7 SSE 1015,3 0,0
24.08.2019 11:00:00 23,7 13,8 14 7 SSE 1015,4 0,0
24.08.2019 10:00:00 22,1 13,7 12 7 SSE 1015,7 0,0
24.08.2019 09:00:00 19,9 12,6 11 6 SSE 1015,8 0,0
24.08.2019 08:00:00 18,3 12,1 12 7 SSE 1015,5 0,0
24.08.2019 07:00:00 18,2 12,0 13 7 SSE 1015,6 0,0
24.08.2019 06:00:00 18,0 12,4 12 6 SSE 1016,1 0,0
24.08.2019 05:00:00 18,7 12,7 12 6 SSE 1016,5 0,0
24.08.2019 04:00:00 17,6 12,9 11 6 SSE 1017,0 0,0
24.08.2019 03:00:00 16,8 13,5 10 6 SE 1017,5 0,0
24.08.2019 02:00:00 16,5 14,1 10 5 SE 1017,9 0,0
24.08.2019 01:00:00 17,0 14,8 9 5 SE 1018,1 0,0
24.08.2019 00:00:00 17,1 15,4 9 5 SE 1018,2 0,0
23.08.2019 23:00:00 18,1 16,1 9 5 SE 1018,6 0,0
23.08.2019 22:00:00 16,7 15,1 5 3 SE 1019,1 0,0
23.08.2019 21:00:00 20,4 16,6 3 1 E 1018,9 0,0
23.08.2019 20:00:00 23,7 17,4 4 2 NNE 1019,0 0,0
23.08.2019 19:00:00 25,5 16,6 10 5 E 1019,3 0,0
23.08.2019 18:00:00 25,8 17,4 11 6 NE 1019,7 0,0
23.08.2019 17:00:00 25,4 17,1 11 6 NE 1020,3 0,0
23.08.2019 16:00:00 24,8 17,5 12 7 N 1020,8 0,0
23.08.2019 15:00:00 27,9 11,9 8 4 SSE 1021,1 0,0
23.08.2019 14:00:00 27,0 11,5 12 6 SSE 1021,3 0,0
23.08.2019 13:00:00 26,5 13,3 11 6 SE 1021,7 0,0
23.08.2019 12:00:00 25,1 13,3 10 6 SE 1022,2 0,0
23.08.2019 11:00:00 22,5 14,6 11 6 SE 1022,5 0,0
23.08.2019 10:00:00 19,5 14,3 10 6 SSE 1022,6 0,0
23.08.2019 09:00:00 15,6 12,5 11 6 SE 1022,8 0,0
23.08.2019 08:00:00 12,8 11,5 11 6 SE 1023,0 0,0
23.08.2019 07:00:00 11,8 11,2 10 6 SE 1023,1 0,0
23.08.2019 06:00:00 12,0 11,5 13 7 ESE 1023,5 0,2
23.08.2019 05:00:00 12,1 11,8 11 6 ESE 1024,1 0,0
23.08.2019 04:00:00 12,0 11,8 11 6 ESE 1024,3 0,0
23.08.2019 03:00:00 11,9 11,7 10 6 ESE 1024,7 0,0
23.08.2019 02:00:00 12,2 12,0 10 5 E 1025,2 0,0
23.08.2019 01:00:00 11,9 11,7 9 5 ESE 1025,6 0,0
23.08.2019 00:00:00 11,4 10,9 6 4 E 1026,0 0,0
22.08.2019 23:00:00 12,0 11,2 7 4 E 1026,1 0,0
22.08.2019 22:00:00 13,2 11,4 5 3 E 1026,1 0,0
22.08.2019 21:00:00 16,2 13,1 8 5 ENE 1025,7 0,0
22.08.2019 20:00:00 17,6 13,5 14 7 ENE 1025,7 0,0
22.08.2019 19:00:00 18,7 14,0 13 7 NE 1025,9 0,0
22.08.2019 18:00:00 19,3 12,1 11 6 NE 1026,3 0,0
22.08.2019 17:00:00 19,6 11,6 14 7 NNE 1026,2 0,0
22.08.2019 16:00:00 20,1 11,8 13 7 NNE 1026,3 0,0
22.08.2019 15:00:00 20,0 11,7 12 6 NNE 1026,4 0,0
22.08.2019 14:00:00 19,3 12,1 11 6 NNE 1026,8 0,0
22.08.2019 13:00:00 18,9 12,2 11 6 NNE 1027,0 0,0
22.08.2019 12:00:00 19,0 12,3 10 5 NNE 1027,1 0,0
22.08.2019 11:00:00 18,0 13,3 8 5 NNE 1026,9 0,0
22.08.2019 10:00:00 16,0 14,9 6 3 NE 1026,6 0,0
22.08.2019 09:00:00 14,4 14,4 4 2 ESE 1026,6 0,0
22.08.2019 08:00:00 8,1 8,1 5 3 ESE 1026,4 0,0
22.08.2019 07:00:00 7,4 7,4 0 0 N 1026,1 0,0
22.08.2019 06:00:00 7,9 7,8 0 0 N 1026,1 0,0
22.08.2019 05:00:00 8,0 7,9 0 0 N 1026,0 0,0
22.08.2019 04:00:00 8,5 8,2 0 0 N 1026,1 0,0
22.08.2019 03:00:00 9,5 9,2 2 1 E 1026,2 0,0
22.08.2019 02:00:00 9,5 9,2 5 3 SE 1026,5 0,0
22.08.2019 01:00:00 9,7 9,1 5 3 ESE 1026,7 0,0
22.08.2019 00:00:00 10,7 9,8 4 2 ESE 1026,8 0,0
21.08.2019 23:00:00 11,1 10,0 3 2 E 1026,7 0,0
21.08.2019 22:00:00 12,6 10,1 4 2 E 1026,6 0,0
21.08.2019 21:00:00 16,0 11,8 6 3 NE 1026,3 0,0
21.08.2019 20:00:00 18,3 10,6 9 5 NNE 1026,1 0,0
21.08.2019 19:00:00 19,4 10,1 10 5 NE 1026,0 0,0
21.08.2019 18:00:00 19,8 10,2 10 5 NNE 1026,2 0,0
21.08.2019 17:00:00 19,8 10,8 11 6 NNE 1026,5 0,0
21.08.2019 16:00:00 19,5 12,5 12 7 NE 1026,9 0,0
21.08.2019 15:00:00 19,4 11,7 12 7 NNE 1027,1 0,0
21.08.2019 14:00:00 19,4 11,9 10 6 N 1027,0 0,0
21.08.2019 13:00:00 19,5 13,4 10 5 NNE 1027,2 0,0
21.08.2019 12:00:00 18,7 13,5 7 4 N 1027,4 0,0
21.08.2019 11:00:00 17,3 12,0 4 2 SSE 1027,6 0,0
21.08.2019 10:00:00 15,5 13,7 2 1 ESE 1027,9 0,2
21.08.2019 09:00:00 11,8 11,6 4 2 ESE 1028,0 0,0
21.08.2019 08:00:00 9,7 9,4 5 3 SE 1027,8 0,0
21.08.2019 07:00:00 10,1 10,1 6 3 SSE 1027,6 0,0
21.08.2019 06:00:00 10,6 10,6 6 3 SE 1027,5 0,0
21.08.2019 05:00:00 9,5 9,4 4 2 SSE 1027,7 0,0
21.08.2019 04:00:00 9,1 8,5 4 2 SSE 1027,8 0,0
21.08.2019 03:00:00 10,9 10,6 6 3 SSE 1027,8 0,0
21.08.2019 02:00:00 11,4 11,1 7 4 SSE 1028,3 0,0
21.08.2019 01:00:00 10,5 10,2 5 3 SE 1028,5 0,0
21.08.2019 00:00:00 10,6 10,1 4 2 SSE 1028,7 0,0
20.08.2019 23:00:00 11,0 10,2 2 1 ESE 1028,7 0,0
20.08.2019 22:00:00 12,4 11,1 0 0 N 1028,4 0,0
20.08.2019 21:00:00 15,1 11,9 4 2 NNE 1027,9 0,0
20.08.2019 20:00:00 17,5 12,2 7 4 N 1027,7 0,0
20.08.2019 19:00:00 17,6 11,6 12 6 NW 1027,5 0,0
20.08.2019 18:00:00 18,2 12,0 11 6 NW 1027,5 0,0
20.08.2019 17:00:00 18,3 12,1 13 7 NW 1027,4 0,0
20.08.2019 16:00:00 18,7 12,2 13 7 NW 1027,5 0,0
20.08.2019 15:00:00 18,5 12,5 13 7 NW 1027,4 0,0
20.08.2019 14:00:00 19,1 13,1 11 6 NW 1027,0 0,0
20.08.2019 13:00:00 18,3 12,5 10 6 WNW 1026,8 0,0
20.08.2019 12:00:00 17,9 11,9 10 5 WNW 1026,6 0,0
20.08.2019 11:00:00 17,2 13,9 5 3 W 1026,2 0,0
20.08.2019 10:00:00 17,1 12,8 6 4 WNW 1025,6 0,0
20.08.2019 09:00:00 14,5 13,5 4 2 SW 1025,2 0,0
20.08.2019 08:00:00 10,7 9,8 5 3 WSW 1024,7 0,0
20.08.2019 07:00:00 12,0 11,4 6 3 WSW 1024,1 0,2
20.08.2019 06:00:00 12,1 11,8 7 4 WSW 1023,6 0,0
20.08.2019 05:00:00 10,3 9,5 5 3 SW 1023,4 0,0
20.08.2019 04:00:00 12,5 11,6 5 3 SW 1023,2 0,0
20.08.2019 03:00:00 12,9 12,0 6 3 WSW 1023,2 0,0
20.08.2019 02:00:00 13,0 12,1 7 4 WSW 1023,3 0,0
20.08.2019 01:00:00 13,1 12,2 7 4 WSW 1023,2 0,0
20.08.2019 00:00:00 13,2 12,3 6 4 WSW 1022,9 0,0
19.08.2019 23:00:00 13,4 12,1 8 4 WSW 1022,7 0,0
19.08.2019 22:00:00 14,0 12,6 8 4 SW 1022,5 0,0
19.08.2019 21:00:00 15,8 12,7 8 5 W 1021,9 0,0
19.08.2019 20:00:00 17,4 12,7 13 7 W 1021,6 0,0
19.08.2019 19:00:00 18,4 12,8 15 8 W 1021,3 0,0
19.08.2019 18:00:00 18,7 13,1 20 11 W 1021,1 0,0
19.08.2019 17:00:00 18,9 12,4 19 10 W 1020,7 0,0
19.08.2019 16:00:00 18,5 11,8 16 8 WSW 1020,8 0,0
19.08.2019 15:00:00 19,0 12,0 19 10 W 1020,6 0,0
19.08.2019 14:00:00 18,4 12,4 18 10 W 1020,2 0,0
19.08.2019 13:00:00 19,0 12,7 19 10 WNW 1019,8 0,0
19.08.2019 12:00:00 19,0 13,0 13 7 W 1019,4 0,0
19.08.2019 11:00:00 18,0 13,1 16 9 W 1018,9 0,0
19.08.2019 10:00:00 16,7 13,0 14 7 W 1018,2 0,0
19.08.2019 09:00:00 15,9 13,9 12 6 W 1017,9 0,0
19.08.2019 08:00:00 13,4 12,8 9 5 WSW 1017,5 0,0
19.08.2019 07:00:00 12,9 12,1 9 5 WSW 1016,9 0,0
19.08.2019 06:00:00 13,1 12,3 9 5 WSW 1016,5 0,0
19.08.2019 05:00:00 13,6 12,7 9 5 WSW 1016,3 0,0
19.08.2019 04:00:00 13,7 12,6 10 5 WSW 1016,3 0,0
19.08.2019 03:00:00 13,7 12,6 10 5 W 1016,2 0,0
19.08.2019 02:00:00 13,8 12,7 9 5 WSW 1016,2 0,0

tt = Température de l'air
td = dewpoint
ff = Vitesse du vent
dd = Direction du vent
ppp = reduced air pressure
rr = Quantités de précipitations

stations d'obs. à proximité